createdAt,value
2019-05-23T00:02:01.278Z,8.5
2019-05-23T00:17:01.425Z,8.5
2019-05-23T00:32:01.354Z,8.5
2019-05-23T00:37:01.342Z,8.6
2019-05-23T00:52:01.328Z,8.6
2019-05-23T01:08:01.291Z,8.6
2019-05-23T01:23:01.425Z,8.5
2019-05-23T01:38:04.113Z,8.4
2019-05-23T01:53:01.334Z,8.4
2019-05-23T02:08:01.276Z,8.4
2019-05-23T02:23:01.384Z,8.3
2019-05-23T02:38:01.257Z,8.2
2019-05-23T02:53:01.275Z,8.2
2019-05-23T02:58:01.246Z,8.1
2019-05-23T03:13:01.278Z,8.1
2019-05-23T03:19:01.264Z,8.0
2019-05-23T03:34:01.344Z,8.0
2019-05-23T03:49:01.276Z,8.0
2019-05-23T03:59:01.277Z,8.1
2019-05-23T04:14:01.233Z,8.2
2019-05-23T04:24:01.271Z,8.3
2019-05-23T04:29:01.276Z,8.4
2019-05-23T04:34:01.221Z,8.5
2019-05-23T04:39:01.327Z,8.7
2019-05-23T04:44:01.278Z,8.9
2019-05-23T04:49:02.966Z,9.1
2019-05-23T04:54:01.276Z,9.2
2019-05-23T04:59:01.311Z,9.6
2019-05-23T05:04:01.243Z,9.9
2019-05-23T05:09:01.262Z,10.1
2019-05-23T05:14:01.265Z,10.3
2019-05-23T05:19:01.977Z,10.4
2019-05-23T05:29:01.237Z,10.5
2019-05-23T05:34:01.255Z,10.6
2019-05-23T05:39:01.276Z,10.7
2019-05-23T05:44:01.218Z,10.8
2019-05-23T05:49:01.187Z,10.9
2019-05-23T05:54:01.366Z,11.0
2019-05-23T06:00:01.444Z,11.2
2019-05-23T06:05:01.429Z,11.4
2019-05-23T06:10:01.394Z,11.6
2019-05-23T06:15:01.583Z,11.8
2019-05-23T06:20:01.289Z,12.0
2019-05-23T06:25:01.386Z,12.2
2019-05-23T06:30:01.426Z,12.3
2019-05-23T06:35:01.410Z,12.4
2019-05-23T06:45:01.567Z,12.6
2019-05-23T06:50:01.313Z,12.7
2019-05-23T06:55:01.306Z,12.8
2019-05-23T07:00:01.545Z,13.0
2019-05-23T07:05:01.365Z,13.2
2019-05-23T07:10:01.536Z,13.3
2019-05-23T07:15:02.595Z,13.5
2019-05-23T07:20:01.289Z,13.6
2019-05-23T07:25:01.354Z,13.8
2019-05-23T07:30:01.748Z,14.0
2019-05-23T07:35:01.417Z,14.1
2019-05-23T07:40:01.396Z,14.3
2019-05-23T07:45:01.751Z,14.5
2019-05-23T07:50:01.336Z,14.6
2019-05-23T07:55:01.413Z,14.8
2019-05-23T08:00:01.438Z,15.0
2019-05-23T08:05:01.688Z,15.2
2019-05-23T08:10:02.639Z,15.3
2019-05-23T08:15:01.596Z,15.5
2019-05-23T08:25:01.350Z,15.6
2019-05-23T08:30:02.714Z,15.7
2019-05-23T08:35:01.472Z,15.9
2019-05-23T08:40:01.354Z,16.1
2019-05-23T08:45:01.317Z,16.3
2019-05-23T08:50:01.273Z,16.4
2019-05-23T08:55:01.330Z,16.5
2019-05-23T09:00:01.588Z,16.5
2019-05-23T09:05:04.820Z,16.6
2019-05-23T09:15:01.560Z,16.7
2019-05-23T09:20:01.374Z,16.9
2019-05-23T09:25:01.357Z,17.1
2019-05-23T09:30:01.468Z,17.2
2019-05-23T09:35:01.488Z,17.4
2019-05-23T09:45:01.428Z,17.5
2019-05-23T09:50:01.298Z,17.6
2019-05-23T10:00:01.922Z,17.7
2019-05-23T10:05:01.504Z,17.9
2019-05-23T10:10:01.317Z,18.1
2019-05-23T10:15:01.585Z,18.2
2019-05-23T10:20:01.386Z,18.3
2019-05-23T10:25:01.422Z,18.4
2019-05-23T10:31:01.279Z,18.5
2019-05-23T10:41:01.361Z,18.6
2019-05-23T10:46:01.284Z,18.7
2019-05-23T10:51:01.300Z,18.8
2019-05-23T11:01:01.169Z,18.9
2019-05-23T11:17:01.135Z,19.0
2019-05-23T11:27:01.440Z,19.2
2019-05-23T11:32:01.299Z,19.4
2019-05-23T11:37:01.403Z,19.5
2019-05-23T11:42:01.296Z,19.7
2019-05-23T11:47:01.266Z,19.8
2019-05-23T11:52:01.279Z,19.9
2019-05-23T11:57:01.422Z,20.0
2019-05-23T12:07:01.419Z,20.1
2019-05-23T12:18:01.130Z,20.0
2019-05-23T12:33:01.677Z,19.9
2019-05-23T12:38:02.510Z,19.8
2019-05-23T12:48:01.143Z,20.1
2019-05-23T12:53:01.480Z,20.2
2019-05-23T12:58:01.272Z,20.4
2019-05-23T13:03:01.461Z,20.5
2019-05-23T13:13:01.489Z,20.4
2019-05-23T13:18:01.339Z,20.3
2019-05-23T13:28:01.355Z,20.2
2019-05-23T13:33:03.665Z,20.3
2019-05-23T13:38:01.282Z,20.4
2019-05-23T13:53:01.361Z,20.5
2019-05-23T14:08:11.050Z,20.5
2019-05-23T14:23:01.442Z,20.6
2019-05-23T14:28:01.403Z,20.7
2019-05-23T14:38:01.413Z,20.6
2019-05-23T14:43:01.347Z,20.7
2019-05-23T14:58:01.424Z,20.6
2019-05-23T15:08:01.460Z,20.5
2019-05-23T15:13:01.934Z,20.4
2019-05-23T15:18:01.288Z,20.3
2019-05-23T15:33:01.260Z,20.3
2019-05-23T15:43:01.411Z,20.2
2019-05-23T15:53:01.478Z,20.3
2019-05-23T16:03:01.254Z,20.4
2019-05-23T16:08:01.332Z,20.5
2019-05-23T16:23:01.417Z,20.5
2019-05-23T16:28:01.350Z,20.6
2019-05-23T16:33:01.416Z,20.7
2019-05-23T16:38:01.306Z,20.6
2019-05-23T16:43:01.354Z,20.4
2019-05-23T16:48:01.339Z,20.3
2019-05-23T16:53:01.423Z,20.2
2019-05-23T16:58:01.341Z,20.0
2019-05-23T17:03:01.445Z,19.9
2019-05-23T17:13:01.410Z,19.8
2019-05-23T17:18:03.645Z,19.7
2019-05-23T17:28:01.414Z,19.5
2019-05-23T17:33:01.412Z,19.3
2019-05-23T17:38:01.397Z,19.1
2019-05-23T17:43:01.411Z,18.9
2019-05-23T17:48:01.407Z,18.7
2019-05-23T17:53:01.470Z,18.6
2019-05-23T17:58:01.419Z,18.5
2019-05-23T18:08:01.464Z,18.4
2019-05-23T18:13:01.429Z,18.3
2019-05-23T18:18:01.432Z,18.1
2019-05-23T18:23:01.425Z,18.0
2019-05-23T18:28:01.410Z,17.7
2019-05-23T18:33:01.413Z,17.6
2019-05-23T18:38:01.629Z,17.4
2019-05-23T18:43:01.422Z,17.2
2019-05-23T18:48:01.301Z,17.0
2019-05-23T18:53:01.415Z,16.9
2019-05-23T18:58:01.408Z,16.7
2019-05-23T19:03:01.958Z,16.6
2019-05-23T19:08:02.168Z,16.4
2019-05-23T19:13:01.448Z,16.2
2019-05-23T19:18:01.479Z,16.1
2019-05-23T19:23:01.421Z,16.0
2019-05-23T19:28:01.413Z,15.8
2019-05-23T19:33:01.418Z,15.7
2019-05-23T19:38:01.427Z,15.6
2019-05-23T19:43:01.414Z,15.5
2019-05-23T19:48:01.409Z,15.4
2019-05-23T19:53:01.493Z,15.2
2019-05-23T19:58:01.466Z,15.1
2019-05-23T20:03:04.421Z,14.9
2019-05-23T20:08:01.637Z,14.8
2019-05-23T20:13:01.416Z,14.7
2019-05-23T20:18:02.206Z,14.6
2019-05-23T20:23:01.507Z,14.5
2019-05-23T20:28:01.429Z,14.4
2019-05-23T20:33:03.588Z,14.3
2019-05-23T20:38:01.405Z,14.2
2019-05-23T20:43:02.904Z,14.1
2019-05-23T20:48:01.434Z,14.0
2019-05-23T20:53:01.481Z,13.9
2019-05-23T20:58:01.482Z,13.8
2019-05-23T21:03:01.429Z,13.7
2019-05-23T21:08:01.525Z,13.6
2019-05-23T21:13:01.428Z,13.5
2019-05-23T21:18:01.283Z,13.4
2019-05-23T21:28:01.443Z,13.3
2019-05-23T21:43:01.350Z,13.3
2019-05-23T21:53:01.848Z,13.2
2019-05-23T22:03:01.419Z,13.1
2019-05-23T22:08:01.247Z,13.0
2019-05-23T22:13:04.118Z,12.9
2019-05-23T22:23:01.415Z,12.8
2019-05-23T22:28:01.267Z,12.7
2019-05-23T22:38:01.355Z,12.6
2019-05-23T22:48:01.403Z,12.5
2019-05-23T22:58:01.424Z,12.4
2019-05-23T23:08:01.427Z,12.3
2019-05-23T23:18:01.466Z,12.2
2019-05-23T23:23:01.329Z,12.1
2019-05-23T23:28:01.277Z,12.0
2019-05-23T23:38:01.367Z,11.9
2019-05-23T23:53:01.401Z,11.8
2019-05-23T23:58:01.283Z,11.7
